Time;durP1;ratioP1;P1;durP2;ratioP2;P2;SDS_P1;SDS_P2;PMS_P1;PMS_P2;Temp;Humidity;BMP_temperature;BMP_pressure;BME280_temperature;BME280_humidity;BME280_pressure;Samples;Min_cycle;Max_cycle;Signal;HPM_P1;HPM_P2
2023/10/06 00:03:06;;;;;;;103.57;99.67;;;;;;;14.34;100.00;102083.63;4990957;28;20546;-45
2023/10/06 00:05:34;;;;;;;111.50;107.37;;;;;;;14.35;100.00;102070.03;4994631;28;20521;-43
2023/10/06 00:08:04;;;;;;;109.50;105.60;;;;;;;14.36;100.00;102074.38;4994584;28;20864;-44
2023/10/06 00:10:32;;;;;;;116.43;112.43;;;;;;;14.40;100.00;102080.19;4993814;28;20556;-46
2023/10/06 00:13:01;;;;;;;118.83;114.53;;;;;;;14.44;100.00;102083.31;4994612;28;20444;-43
2023/10/06 00:15:35;;;;;;;118.27;113.90;;;;;;;14.45;100.00;102083.16;4994498;28;20435;-40
2023/10/06 00:18:07;;;;;;;115.93;111.93;;;;;;;14.48;100.00;102076.56;4994264;28;20477;-42
2023/10/06 00:20:42;;;;;;;117.47;113.27;;;;;;;14.53;100.00;102076.81;4993731;28;20470;-42
2023/10/06 00:23:13;;;;;;;121.60;116.90;;;;;;;14.52;100.00;102070.59;4994540;28;20429;-40
2023/10/06 00:25:42;;;;;;;126.57;121.03;;;;;;;14.57;100.00;102073.56;4994289;28;20438;-42
2023/10/06 00:28:19;;;;;;;133.37;128.13;;;;;;;14.58;100.00;102069.00;4994144;28;20438;-41
2023/10/06 00:30:49;;;;;;;132.17;126.63;;;;;;;14.63;100.00;102069.28;5013089;28;20452;-42
2023/10/06 00:33:20;;;;;;;128.43;123.53;;;;;;;14.63;100.00;102071.97;5013811;28;20426;-41
2023/10/06 00:35:48;;;;;;;136.43;130.70;;;;;;;14.64;100.00;102061.03;5013823;28;20430;-45
2023/10/06 00:38:17;;;;;;;135.43;129.87;;;;;;;14.67;100.00;102071.38;5013340;28;20504;-42
2023/10/06 00:40:51;;;;;;;132.97;127.73;;;;;;;14.69;100.00;102061.31;5013240;28;20441;-44
2023/10/06 00:43:34;;;;;;;129.20;124.17;;;;;;;14.71;100.00;102053.88;5013495;28;20436;-40
2023/10/06 00:46:06;;;;;;;128.10;122.93;;;;;;;14.72;100.00;102050.19;5014011;28;20429;-44
2023/10/06 00:48:39;;;;;;;128.60;122.93;;;;;;;14.72;100.00;102060.94;5012877;28;20429;-40
2023/10/06 00:51:12;;;;;;;128.50;123.10;;;;;;;14.71;100.00;102056.56;5013502;28;20437;-39
2023/10/06 00:53:41;;;;;;;125.67;120.37;;;;;;;14.74;100.00;102053.50;5015790;28;20543;-43
2023/10/06 00:56:14;;;;;;;129.80;124.27;;;;;;;14.75;100.00;102047.13;5026720;28;20486;-39
2023/10/06 00:58:44;;;;;;;130.37;125.27;;;;;;;14.75;100.00;102049.81;5018114;28;20460;-38
2023/10/06 01:01:13;;;;;;;128.63;123.20;;;;;;;14.73;100.00;102046.47;5012263;28;20524;-38
2023/10/06 01:03:44;;;;;;;125.03;119.30;;;;;;;14.76;100.00;102043.38;5012811;28;20430;-39
2023/10/06 01:06:14;;;;;;;124.03;118.63;;;;;;;14.77;100.00;102038.84;5013181;28;20437;-38
2023/10/06 01:08:45;;;;;;;134.33;128.10;;;;;;;14.75;100.00;102036.38;5011941;28;20453;-39
2023/10/06 01:11:16;;;;;;;140.30;134.20;;;;;;;14.76;100.00;102032.66;5013042;28;20495;-39
2023/10/06 01:13:55;;;;;;;130.97;125.20;;;;;;;14.78;100.00;102040.53;5012841;28;20508;-39
2023/10/06 01:16:30;;;;;;;137.03;131.53;;;;;;;14.76;100.00;102040.69;5012584;28;20440;-39
2023/10/06 01:19:14;;;;;;;129.03;123.50;;;;;;;14.77;100.00;102031.63;5012041;28;20461;-39
2023/10/06 01:21:46;;;;;;;125.13;120.17;;;;;;;14.78;100.00;102032.47;5012447;28;20491;-43
2023/10/06 01:24:24;;;;;;;126.53;121.00;;;;;;;14.78;100.00;102033.28;5012960;28;20805;-39
2023/10/06 01:26:53;;;;;;;125.37;120.27;;;;;;;14.80;100.00;102022.34;5008433;28;20437;-45
2023/10/06 01:29:26;;;;;;;131.03;124.57;;;;;;;14.79;100.00;102002.72;5004293;28;20466;-46
2023/10/06 01:31:53;;;;;;;128.13;122.43;;;;;;;14.78;100.00;101997.56;5004513;28;20441;-40
2023/10/06 01:34:21;;;;;;;124.20;118.10;;;;;;;14.75;100.00;101998.78;5012095;28;20437;-38
2023/10/06 01:36:52;;;;;;;127.93;122.93;;;;;;;14.73;100.00;101989.22;5012268;28;20951;-39
2023/10/06 01:39:25;;;;;;;133.70;127.80;;;;;;;14.75;100.00;102004.16;5011347;28;20464;-41
2023/10/06 01:41:52;;;;;;;128.07;123.03;;;;;;;14.71;100.00;101997.50;5004182;28;20897;-38
2023/10/06 01:44:20;;;;;;;134.57;129.03;;;;;;;14.72;100.00;101993.81;5012205;28;20437;-41
2023/10/06 01:46:53;;;;;;;137.90;132.20;;;;;;;14.74;100.00;101993.59;5012059;28;20451;-39
2023/10/06 01:49:22;;;;;;;137.53;131.73;;;;;;;14.74;100.00;101989.06;5011440;28;20467;-44
2023/10/06 01:51:51;;;;;;;136.53;130.77;;;;;;;14.72;100.00;101990.28;5011802;28;20461;-38
2023/10/06 01:54:37;;;;;;;133.20;127.53;;;;;;;14.73;100.00;101982.00;5012162;28;20444;-39
2023/10/06 01:57:06;;;;;;;136.60;131.03;;;;;;;14.72;100.00;101976.84;5004096;28;20441;-44
2023/10/06 01:59:34;;;;;;;138.37;132.93;;;;;;;14.73;100.00;101973.97;5010175;28;20461;-40
2023/10/06 02:02:04;;;;;;;138.63;133.17;;;;;;;14.69;100.00;101967.34;5005292;28;20515;-39
2023/10/06 02:04:39;;;;;;;137.70;131.23;;;;;;;14.70;100.00;101970.81;5010864;28;20848;-41
2023/10/06 02:07:10;;;;;;;137.87;131.30;;;;;;;14.70;100.00;101963.59;5005916;28;20490;-38
2023/10/06 02:09:39;;;;;;;133.27;127.97;;;;;;;14.70;100.00;101962.78;5011055;28;20472;-39
2023/10/06 02:12:08;;;;;;;133.33;127.63;;;;;;;14.70;100.00;101968.13;5006308;28;20470;-40
2023/10/06 02:14:36;;;;;;;143.60;137.60;;;;;;;14.67;100.00;101964.00;5009444;28;20512;-41
2023/10/06 02:17:06;;;;;;;139.57;134.17;;;;;;;14.69;100.00;101975.38;5011639;28;20433;-39
2023/10/06 02:19:34;;;;;;;132.17;126.93;;;;;;;14.69;100.00;101971.88;5010735;28;20473;-40
2023/10/06 02:22:06;;;;;;;130.10;124.90;;;;;;;14.68;100.00;101968.34;5012136;28;20813;-40
2023/10/06 02:24:33;;;;;;;130.53;124.73;;;;;;;14.69;100.00;101961.97;5011755;28;20495;-39
2023/10/06 02:27:04;;;;;;;129.77;123.90;;;;;;;14.68;100.00;101949.56;5007348;28;20441;-39
2023/10/06 02:29:32;;;;;;;122.27;116.87;;;;;;;14.66;100.00;101959.66;5009917;28;20461;-40
2023/10/06 02:32:06;;;;;;;126.53;121.43;;;;;;;14.65;100.00;101965.22;5011319;28;20920;-42
2023/10/06 02:34:36;;;;;;;125.90;120.70;;;;;;;14.64;100.00;101961.69;5003045;28;20430;-41
2023/10/06 02:37:06;;;;;;;124.43;119.30;;;;;;;14.64;100.00;101958.19;4992075;28;20529;-44
2023/10/06 02:39:37;;;;;;;126.23;120.93;;;;;;;14.63;100.00;101952.00;4990969;28;20465;-44
2023/10/06 02:42:08;;;;;;;119.20;114.03;;;;;;;14.63;100.00;101946.63;4991902;28;20520;-39
2023/10/06 02:44:38;;;;;;;120.87;115.30;;;;;;;14.64;100.00;101934.00;4991881;28;20466;-41
2023/10/06 02:47:09;;;;;;;121.83;116.53;;;;;;;14.64;100.00;101932.16;4992057;28;20446;-39
2023/10/06 02:49:40;;;;;;;120.87;115.73;;;;;;;14.59;100.00;101931.09;5010088;28;20456;-40
2023/10/06 02:52:20;;;;;;;115.83;110.23;;;;;;;14.59;100.00;101923.03;5011474;28;20440;-40
2023/10/06 02:54:56;;;;;;;115.63;110.77;;;;;;;14.58;100.00;101922.19;5011286;28;20437;-39
2023/10/06 02:57:26;;;;;;;116.83;111.90;;;;;;;14.56;100.00;101929.63;5011640;28;20468;-41
2023/10/06 02:59:56;;;;;;;117.37;111.80;;;;;;;14.54;100.00;101922.78;5010529;28;20465;-40
2023/10/06 03:02:26;;;;;;;118.10;112.60;;;;;;;14.54;100.00;101912.06;5011643;28;20498;-40
2023/10/06 03:05:01;;;;;;;120.07;115.03;;;;;;;14.52;100.00;101914.91;5014377;28;20428;-43
2023/10/06 03:07:29;;;;;;;119.77;114.63;;;;;;;14.50;100.00;101919.66;5014966;28;20428;-39
2023/10/06 03:09:57;;;;;;;110.43;105.30;;;;;;;14.50;100.00;101910.78;4997300;28;20466;-39
2023/10/06 03:12:31;;;;;;;112.53;107.20;;;;;;;14.48;100.00;101900.25;4991540;28;20945;-40
2023/10/06 03:14:59;;;;;;;110.97;105.70;;;;;;;14.46;100.00;101906.81;4991795;28;20442;-42
2023/10/06 03:17:29;;;;;;;111.83;106.53;;;;;;;14.46;100.00;101906.81;4991702;28;20448;-41
2023/10/06 03:20:08;;;;;;;110.97;106.07;;;;;;;14.44;100.00;101903.50;5012532;28;20469;-42
2023/10/06 03:22:38;;;;;;;109.80;105.00;;;;;;;14.42;100.00;101894.81;5011222;28;20512;-40
2023/10/06 03:25:16;;;;;;;106.10;101.53;;;;;;;14.39;100.00;101901.41;5011015;28;20525;-39
2023/10/06 03:27:49;;;;;;;106.80;102.20;;;;;;;14.39;100.00;101901.41;5016009;28;20437;-42
2023/10/06 03:30:26;;;;;;;104.03;99.17;;;;;;;14.37;100.00;101898.91;4994468;28;20516;-44
2023/10/06 03:32:55;;;;;;;103.30;98.00;;;;;;;14.35;100.00;101887.53;4991446;28;20433;-39
2023/10/06 03:35:23;;;;;;;98.20;93.10;;;;;;;14.36;100.00;101891.06;4991416;28;21032;-39
2023/10/06 03:38:07;;;;;;;91.33;87.13;;;;;;;14.36;100.00;101877.66;4991333;28;20474;-40
2023/10/06 03:40:43;;;;;;;92.77;87.50;;;;;;;14.36;100.00;101883.84;5020523;28;21203;-41
2023/10/06 03:43:13;;;;;;;87.07;82.00;;;;;;;14.37;100.00;101884.66;5019567;28;20807;-40
2023/10/06 03:45:42;;;;;;;81.67;77.30;;;;;;;14.37;100.00;101879.28;5015594;28;20479;-41
2023/10/06 03:48:11;;;;;;;81.40;76.60;;;;;;;14.34;100.00;101869.78;5014254;28;20532;-44
2023/10/06 03:50:40;;;;;;;84.07;79.60;;;;;;;14.36;100.00;101864.22;5014136;28;20464;-41
2023/10/06 03:53:14;;;;;;;78.23;74.50;;;;;;;14.33;100.00;101854.72;5014800;28;20646;-41
2023/10/06 03:55:44;;;;;;;75.43;71.43;;;;;;;14.34;100.00;101852.84;5023029;28;20431;-39
2023/10/06 03:58:16;;;;;;;80.07;76.10;;;;;;;14.32;100.00;101842.31;5014513;28;20433;-42
2023/10/06 04:00:48;;;;;;;77.90;73.53;;;;;;;14.32;100.00;101842.31;5015269;28;20473;-39
2023/10/06 04:03:17;;;;;;;74.93;71.10;;;;;;;14.30;100.00;101838.13;5026249;28;20505;-40
2023/10/06 04:05:46;;;;;;;74.73;70.67;;;;;;;14.31;100.00;101831.72;5024629;28;20431;-40
2023/10/06 04:08:15;;;;;;;76.90;72.70;;;;;;;14.28;100.00;101822.22;5014188;28;20433;-40
2023/10/06 04:10:44;;;;;;;74.23;70.50;;;;;;;14.27;100.00;101823.25;5013926;28;20465;-39
2023/10/06 04:13:14;;;;;;;72.57;69.00;;;;;;;14.28;100.00;101816.00;5019637;28;20799;-42
2023/10/06 04:15:43;;;;;;;72.50;68.90;;;;;;;14.24;100.00;101815.59;5016349;28;20520;-40
2023/10/06 04:18:11;;;;;;;67.50;63.90;;;;;;;14.25;100.00;101814.56;5013784;28;20929;-39
2023/10/06 04:20:40;;;;;;;67.90;64.03;;;;;;;14.22;100.00;101806.91;5029795;28;20859;-39
2023/10/06 04:23:09;;;;;;;66.47;62.37;;;;;;;14.24;100.00;101809.41;5022452;28;20896;-42
2023/10/06 04:25:37;;;;;;;71.60;67.73;;;;;;;14.23;100.00;101810.41;5014363;28;20465;-40
2023/10/06 04:28:08;;;;;;;65.67;61.83;;;;;;;14.19;100.00;101812.66;5029570;28;20801;-41
2023/10/06 04:30:38;;;;;;;62.67;59.43;;;;;;;14.19;100.00;101815.34;5013245;28;20550;-41
2023/10/06 04:33:08;;;;;;;62.57;58.87;;;;;;;14.16;100.00;101815.72;5013970;28;20459;-40
2023/10/06 04:35:39;;;;;;;63.43;59.87;;;;;;;14.16;100.00;101822.94;5013808;28;20469;-42
2023/10/06 04:38:10;;;;;;;59.63;56.43;;;;;;;14.19;100.00;101807.28;5025199;28;20443;-40
2023/10/06 04:40:38;;;;;;;59.27;55.77;;;;;;;14.20;100.00;101808.13;5016208;28;20465;-41
2023/10/06 04:43:06;;;;;;;57.47;54.37;;;;;;;14.19;100.00;101807.28;5013546;28;20436;-39
2023/10/06 04:45:38;;;;;;;61.00;57.30;;;;;;;14.16;100.00;101801.47;5013784;28;20433;-40
2023/10/06 04:48:09;;;;;;;65.90;62.20;;;;;;;14.17;100.00;101803.97;5013691;28;20491;-39
2023/10/06 04:50:37;;;;;;;64.87;61.07;;;;;;;14.18;100.00;101792.22;5013019;28;20461;-40
2023/10/06 04:53:06;;;;;;;70.10;66.30;;;;;;;14.18;100.00;101786.03;5012530;28;20535;-42
2023/10/06 04:55:37;;;;;;;66.20;62.30;;;;;;;14.15;100.00;101786.41;5021780;28;20441;-39
2023/10/06 04:58:06;;;;;;;73.17;68.97;;;;;;;14.14;100.00;101780.22;5013508;28;20519;-40
2023/10/06 05:00:34;;;;;;;70.03;66.20;;;;;;;14.15;100.00;101773.84;5020801;28;20564;-41
2023/10/06 05:03:04;;;;;;;73.63;69.40;;;;;;;14.14;100.00;101774.84;5013037;28;21018;-39
2023/10/06 05:05:37;;;;;;;71.27;67.73;;;;;;;14.14;100.00;101776.69;5021571;28;20490;-40
2023/10/06 05:08:09;;;;;;;69.70;65.83;;;;;;;14.10;100.00;101770.88;5021179;28;20955;-40
2023/10/06 05:10:39;;;;;;;73.43;68.97;;;;;;;14.12;100.00;101782.28;5020671;28;20457;-41
2023/10/06 05:13:08;;;;;;;67.53;63.90;;;;;;;14.11;100.00;101777.09;5028981;28;20476;-40
2023/10/06 05:15:36;;;;;;;68.80;65.53;;;;;;;14.13;100.00;101769.66;5013233;28;20492;-44
2023/10/06 05:18:05;;;;;;;69.43;65.57;;;;;;;14.11;100.00;101772.56;5012831;28;20433;-44
2023/10/06 05:20:35;;;;;;;73.17;69.30;;;;;;;14.10;100.00;101764.69;5012352;28;20675;-41
2023/10/06 05:23:07;;;;;;;75.73;71.70;;;;;;;14.09;100.00;101761.22;5021337;28;20437;-42
2023/10/06 05:25:35;;;;;;;76.03;72.47;;;;;;;14.08;100.00;101764.06;5012981;28;20433;-40
2023/10/06 05:28:03;;;;;;;79.60;75.63;;;;;;;14.09;100.00;101758.53;5026550;28;20437;-41
2023/10/06 05:30:32;;;;;;;80.30;76.50;;;;;;;14.08;100.00;101764.06;5012225;28;20480;-39
2023/10/06 05:33:00;;;;;;;80.53;76.57;;;;;;;14.04;100.00;101760.09;5015606;28;20428;-43
2023/10/06 05:35:30;;;;;;;85.43;81.17;;;;;;;14.01;100.00;101747.91;5017555;28;21001;-40
2023/10/06 05:37:59;;;;;;;85.20;81.50;;;;;;;14.00;100.00;101738.22;5015314;28;20491;-40
2023/10/06 05:40:29;;;;;;;93.97;89.73;;;;;;;13.98;100.00;101742.94;5014192;28;20591;-39
2023/10/06 05:42:57;;;;;;;91.60;87.40;;;;;;;13.97;100.00;101744.00;5012472;28;20433;-39
2023/10/06 05:45:25;;;;;;;93.03;89.07;;;;;;;13.92;100.00;101748.28;5012495;28;20499;-40
2023/10/06 05:47:54;;;;;;;93.73;89.43;;;;;;;13.95;100.00;101746.00;4994517;28;20438;-43
2023/10/06 05:50:27;;;;;;;98.53;94.20;;;;;;;13.96;100.00;101736.13;4992303;28;20454;-41
2023/10/06 05:52:58;;;;;;;95.10;90.87;;;;;;;13.97;100.00;101737.78;4992745;28;20959;-37
2023/10/06 05:55:35;;;;;;;93.50;89.50;;;;;;;13.96;100.00;101739.63;4992816;28;20441;-42
2023/10/06 05:58:03;;;;;;;98.20;93.80;;;;;;;13.97;100.00;101745.84;4992526;28;20480;-40
2023/10/06 06:00:31;;;;;;;97.27;93.07;;;;;;;13.95;100.00;101762.09;5018110;28;20560;-39
2023/10/06 06:03:09;;;;;;;93.47;89.07;;;;;;;13.94;100.00;101746.22;5012018;28;20541;-42
2023/10/06 06:05:38;;;;;;;99.17;94.83;;;;;;;13.91;100.00;101743.94;5028279;28;20436;-39
2023/10/06 06:08:08;;;;;;;93.33;89.37;;;;;;;13.91;100.00;101738.56;5019972;28;20445;-38
2023/10/06 06:10:38;;;;;;;98.70;93.90;;;;;;;13.92;100.00;101734.88;5018963;28;20468;-38
2023/10/06 06:13:06;;;;;;;97.30;92.57;;;;;;;13.93;100.00;101721.25;5015556;28;20873;-39
2023/10/06 06:15:35;;;;;;;101.60;96.60;;;;;;;13.97;100.00;101711.81;5016429;28;20491;-39
2023/10/06 06:18:03;;;;;;;98.20;93.40;;;;;;;13.95;100.00;101711.16;5028274;28;20464;-40
2023/10/06 06:20:31;;;;;;;96.13;91.40;;;;;;;13.95;100.00;101699.63;5018068;28;20487;-40
2023/10/06 06:22:59;;;;;;;92.60;88.17;;;;;;;13.95;100.00;101705.00;5020815;28;20433;-39
2023/10/06 06:25:27;;;;;;;91.90;87.60;;;;;;;13.95;100.00;101700.44;5020305;28;20441;-39
2023/10/06 06:27:59;;;;;;;89.23;84.83;;;;;;;13.97;100.00;101692.19;5017888;28;20433;-42
2023/10/06 06:30:27;;;;;;;94.23;89.10;;;;;;;14.00;100.00;101691.81;5011204;28;20503;-41
2023/10/06 06:32:55;;;;;;;97.43;92.60;;;;;;;13.99;100.00;101682.94;5013564;28;20469;-43
2023/10/06 06:35:25;;;;;;;98.07;93.50;;;;;;;14.00;100.00;101675.72;5017505;28;20486;-42
2023/10/06 06:37:59;;;;;;;108.30;102.93;;;;;;;14.02;100.00;101687.91;5013273;28;20847;-43
2023/10/06 06:40:28;;;;;;;102.00;96.90;;;;;;;13.95;100.00;101676.28;5024493;28;20461;-40
2023/10/06 06:42:58;;;;;;;112.83;107.57;;;;;;;13.98;100.00;101685.81;5021932;28;20428;-39
2023/10/06 06:45:25;;;;;;;113.60;107.60;;;;;;;13.94;100.00;101679.19;5017443;28;20487;-39
2023/10/06 06:47:54;;;;;;;115.30;110.10;;;;;;;13.92;100.00;101684.72;5039356;23;20553;-41
2023/10/06 06:50:22;;;;;;;128.73;123.33;;;;;;;13.89;100.00;101687.78;5030277;28;20460;-40
2023/10/06 06:52:53;;;;;;;125.93;120.43;;;;;;;13.87;100.00;101687.19;5031289;28;20446;-41
2023/10/06 06:55:22;;;;;;;138.73;132.37;;;;;;;13.90;100.00;101702.03;5031197;28;20518;-41
2023/10/06 06:57:50;;;;;;;133.57;127.97;;;;;;;13.88;100.00;101696.88;5035857;28;21020;-44
2023/10/06 07:00:25;;;;;;;132.07;126.33;;;;;;;13.86;100.00;101694.38;5044204;28;20566;-40
2023/10/06 07:02:54;;;;;;;142.27;135.97;;;;;;;13.83;100.00;101701.97;5032959;28;20834;-40
2023/10/06 07:05:23;;;;;;;140.20;133.60;;;;;;;13.83;100.00;101688.56;5044775;28;20469;-40
2023/10/06 07:07:51;;;;;;;149.03;142.63;;;;;;;13.81;100.00;101682.59;5041295;28;20471;-41
2023/10/06 07:10:22;;;;;;;149.13;142.40;;;;;;;13.85;100.00;101689.22;5030200;28;20543;-42
2023/10/06 07:12:51;;;;;;;148.13;141.33;;;;;;;13.89;100.00;101695.84;5030708;28;20436;-42
2023/10/06 07:15:20;;;;;;;146.27;140.13;;;;;;;13.89;100.00;101684.31;5032264;28;20458;-45
2023/10/06 07:17:51;;;;;;;147.97;141.80;;;;;;;13.96;100.00;101688.69;5035296;28;20495;-42
2023/10/06 07:20:20;;;;;;;149.77;143.33;;;;;;;14.00;100.00;101702.53;5054447;28;20490;-40
2023/10/06 07:22:52;;;;;;;149.13;142.73;;;;;;;14.01;100.00;101698.84;5037509;28;20566;-41
2023/10/06 07:25:23;;;;;;;149.00;142.63;;;;;;;14.02;100.00;101687.06;5047974;28;20431;-41
2023/10/06 07:27:52;;;;;;;149.73;143.33;;;;;;;14.01;100.00;101691.59;5037858;28;20459;-40
2023/10/06 07:30:22;;;;;;;154.77;147.50;;;;;;;14.00;100.00;101681.91;5054188;28;20483;-40
2023/10/06 07:32:54;;;;;;;153.07;146.40;;;;;;;14.02;100.00;101689.75;5054382;28;20942;-41
2023/10/06 07:35:27;;;;;;;162.20;154.53;;;;;;;14.04;100.00;101690.38;5041188;28;20462;-40
2023/10/06 07:37:55;;;;;;;155.03;148.40;;;;;;;14.05;100.00;101684.00;5034159;28;20448;-40
2023/10/06 07:40:22;;;;;;;161.90;154.20;;;;;;;14.06;100.00;101686.50;5038977;28;20458;-40
2023/10/06 07:42:52;;;;;;;159.10;152.20;;;;;;;14.08;100.00;101678.25;5045452;28;20545;-42
2023/10/06 07:45:20;;;;;;;160.50;153.40;;;;;;;14.06;100.00;101674.94;5042819;28;20420;-42
2023/10/06 07:47:53;;;;;;;165.87;158.23;;;;;;;14.11;100.00;101693.94;5042271;28;20988;-41
2023/10/06 07:50:20;;;;;;;159.50;152.33;;;;;;;14.09;100.00;101685.28;5042086;28;20506;-42
2023/10/06 07:52:48;;;;;;;154.87;147.83;;;;;;;14.06;100.00;101691.03;5043188;28;20446;-40
2023/10/06 07:55:21;;;;;;;163.73;155.70;;;;;;;14.09;100.00;101693.31;5046158;28;20462;-41
2023/10/06 07:57:48;;;;;;;161.73;153.37;;;;;;;14.13;100.00;101695.41;5045636;28;20988;-41
2023/10/06 08:00:27;;;;;;;164.17;156.30;;;;;;;14.16;100.00;101686.13;5045449;28;20462;-42
2023/10/06 08:02:57;;;;;;;162.93;154.63;;;;;;;14.16;100.00;101689.63;5044430;28;20478;-42
2023/10/06 08:05:25;;;;;;;164.07;156.17;;;;;;;14.21;100.00;101687.22;5042589;28;20424;-42
2023/10/06 08:07:57;;;;;;;171.13;162.03;;;;;;;14.23;100.00;101673.59;5043622;28;20506;-41
2023/10/06 08:10:27;;;;;;;169.83;161.07;;;;;;;14.25;100.00;101682.25;5045115;28;20447;-40
2023/10/06 08:12:56;;;;;;;159.57;152.10;;;;;;;14.31;100.00;101692.19;5044372;28;20506;-40
2023/10/06 08:15:27;;;;;;;170.90;162.83;;;;;;;14.34;100.00;101689.16;5042313;28;20961;-40
2023/10/06 08:17:56;;;;;;;167.70;159.80;;;;;;;14.33;100.00;101684.84;5050282;28;20455;-41
2023/10/06 08:20:25;;;;;;;162.30;154.73;;;;;;;14.36;100.00;101687.97;5046855;28;20459;-41
2023/10/06 08:22:54;;;;;;;163.37;155.93;;;;;;;14.37;100.00;101681.53;5045673;28;20816;-40
2023/10/06 08:25:23;;;;;;;159.67;152.77;;;;;;;14.39;100.00;101681.34;5045701;28;20430;-40
2023/10/06 08:27:52;;;;;;;159.67;152.37;;;;;;;14.44;100.00;101688.78;5044962;28;20567;-40
2023/10/06 08:30:20;;;;;;;161.37;154.07;;;;;;;14.43;100.00;101681.75;5048755;28;20454;-41
2023/10/06 08:32:49;;;;;;;164.77;156.90;;;;;;;14.46;100.00;101687.56;5042103;28;20458;-40
2023/10/06 08:35:19;;;;;;;164.17;156.30;;;;;;;14.48;100.00;101687.38;5045510;28;20813;-42
2023/10/06 08:37:49;;;;;;;165.63;157.10;;;;;;;14.47;100.00;101678.50;5045485;28;20451;-40
2023/10/06 08:40:19;;;;;;;166.77;159.00;;;;;;;14.47;100.00;101683.03;5041292;28;20456;-41
2023/10/06 08:42:48;;;;;;;168.97;160.60;;;;;;;14.48;100.00;101685.53;5041633;28;21298;-40
2023/10/06 08:45:20;;;;;;;170.33;161.90;;;;;;;14.51;100.00;101677.09;5041945;28;20428;-40
2023/10/06 08:47:49;;;;;;;167.03;158.63;;;;;;;14.48;100.00;101685.53;5041571;28;20502;-40
2023/10/06 08:50:33;;;;;;;167.23;158.77;;;;;;;14.52;100.00;101684.09;5040920;28;21000;-40
2023/10/06 08:53:04;;;;;;;174.30;165.00;;;;;;;14.51;100.00;101677.09;5042997;28;20504;-40
2023/10/06 08:55:33;;;;;;;170.73;162.20;;;;;;;14.56;100.00;101669.25;5045224;28;20794;-40
2023/10/06 08:58:01;;;;;;;165.27;157.00;;;;;;;14.54;100.00;101674.00;5043284;28;20478;-40
2023/10/06 09:00:35;;;;;;;164.50;156.80;;;;;;;14.58;100.00;101669.03;5040785;28;21024;-40
2023/10/06 09:03:07;;;;;;;169.63;161.50;;;;;;;14.63;100.00;101666.59;5043097;28;20541;-40
2023/10/06 09:05:39;;;;;;;165.13;157.23;;;;;;;14.62;100.00;101664.94;5044698;28;20451;-42
2023/10/06 09:08:08;;;;;;;165.07;157.10;;;;;;;14.69;100.00;101660.44;5042151;28;20461;-41
2023/10/06 09:10:41;;;;;;;171.77;162.40;;;;;;;14.76;100.00;101656.72;5040915;28;20567;-41
2023/10/06 09:13:11;;;;;;;159.03;150.80;;;;;;;14.80;100.00;101649.94;5043989;28;20520;-41
2023/10/06 09:15:40;;;;;;;162.17;154.07;;;;;;;14.87;100.00;101647.28;5044485;28;20458;-41
2023/10/06 09:18:19;;;;;;;153.00;145.50;;;;;;;14.89;100.00;101654.09;5041685;28;20459;-42
2023/10/06 09:20:49;;;;;;;158.27;151.27;;;;;;;14.92;100.00;101647.47;5040948;28;20471;-41
2023/10/06 09:23:31;;;;;;;159.50;152.10;;;;;;;14.98;100.00;101653.91;5041022;28;20554;-41
2023/10/06 09:26:00;;;;;;;153.30;146.20;;;;;;;15.05;100.00;101639.47;5041974;28;20436;-41
2023/10/06 09:28:28;;;;;;;150.63;143.23;;;;;;;15.07;100.00;101639.25;5046215;28;20458;-41
2023/10/06 09:31:00;;;;;;;149.67;141.80;;;;;;;15.08;100.00;101654.34;5041515;28;20432;-41
2023/10/06 09:33:29;;;;;;;153.37;146.20;;;;;;;15.01;100.00;101648.94;5052390;28;20961;-42
2023/10/06 09:36:07;;;;;;;155.07;147.30;;;;;;;15.07;100.00;101641.94;5042973;28;20436;-42
2023/10/06 09:38:36;;;;;;;149.87;143.03;;;;;;;15.08;100.00;101644.44;5039173;28;20435;-41
2023/10/06 09:41:06;;;;;;;152.73;146.13;;;;;;;15.13;100.00;101644.63;5042011;28;20435;-41
2023/10/06 09:43:36;;;;;;;153.47;146.73;;;;;;;15.08;100.00;101644.44;5046414;28;20507;-41
2023/10/06 09:46:07;;;;;;;154.30;147.63;;;;;;;15.10;100.00;101636.97;5041922;28;20443;-41
2023/10/06 09:48:38;;;;;;;152.53;145.20;;;;;;;15.15;100.00;101618.38;5051290;28;20810;-41
2023/10/06 09:51:08;;;;;;;152.03;144.87;;;;;;;15.12;100.00;101626.84;5041645;28;20511;-41
2023/10/06 09:53:38;;;;;;;153.60;147.10;;;;;;;15.08;100.00;101617.56;5040422;28;20435;-43
2023/10/06 09:56:09;;;;;;;162.57;155.87;;;;;;;15.12;100.00;101604.53;5042164;28;20428;-42
2023/10/06 09:58:40;;;;;;;156.87;150.10;;;;;;;15.10;100.00;101606.59;5042998;28;20428;-41
2023/10/06 10:01:10;;;;;;;155.50;149.10;;;;;;;15.17;100.00;101612.81;5041486;28;20526;-41
2023/10/06 10:03:38;;;;;;;142.10;136.00;;;;;;;15.16;100.00;101598.53;5046370;28;20505;-41
2023/10/06 10:06:08;;;;;;;137.40;131.20;;;;;;;15.24;100.00;101590.28;5041342;28;20423;-43
2023/10/06 10:08:36;;;;;;;125.97;120.17;;;;;;;15.26;100.00;101584.72;5039505;28;20531;-42
2023/10/06 10:11:08;;;;;;;128.80;123.57;;;;;;;15.30;100.00;101583.25;5042662;28;20527;-41
2023/10/06 10:13:50;;;;;;;121.63;116.43;;;;;;;15.45;100.00;101584.69;5045079;28;20444;-43
2023/10/06 10:16:33;;;;;;;111.93;106.50;;;;;;;15.52;100.00;101570.44;5044392;28;20427;-41
2023/10/06 10:19:07;;;;;;;110.70;105.90;;;;;;;15.54;100.00;101576.44;5043160;28;20558;-45
2023/10/06 10:21:38;;;;;;;126.13;121.23;;;;;;;15.49;100.00;101575.22;5043533;28;20946;-43
2023/10/06 10:24:07;;;;;;;131.90;126.63;;;;;;;15.47;100.00;101571.88;5041656;28;20894;-43
2023/10/06 10:26:55;;;;;;;135.80;130.37;;;;;;;15.45;100.00;101571.25;5040019;28;20456;-41
2023/10/06 10:29:29;;;;;;;132.27;127.17;;;;;;;15.44;100.00;101561.53;5042766;28;20478;-42
2023/10/06 10:32:07;;;;;;;137.27;131.30;;;;;;;15.36;100.00;101555.53;5042582;28;20434;-41
2023/10/06 10:34:38;;;;;;;142.60;136.20;;;;;;;15.34;100.00;101553.06;5039923;28;20428;-45
2023/10/06 10:37:17;;;;;;;152.57;145.87;;;;;;;15.33;100.00;101545.19;5040980;28;20546;-42
2023/10/06 10:39:49;;;;;;;155.40;148.47;;;;;;;15.31;100.00;101552.66;5042723;28;20474;-43
2023/10/06 10:42:18;;;;;;;157.00;150.60;;;;;;;15.26;100.00;101549.78;5043205;28;20798;-44
2023/10/06 10:44:48;;;;;;;166.30;159.50;;;;;;;15.30;100.00;101553.69;5042859;28;20499;-43
2023/10/06 10:47:17;;;;;;;163.10;156.80;;;;;;;15.33;100.00;101553.25;5042859;28;20454;-42
2023/10/06 10:49:46;;;;;;;160.27;153.40;;;;;;;15.35;100.00;101557.41;5042779;28;20456;-43
2023/10/06 10:52:15;;;;;;;163.90;156.90;;;;;;;15.34;100.00;101554.94;5041903;28;20958;-42
2023/10/06 10:54:44;;;;;;;163.07;155.60;;;;;;;15.38;100.00;101556.19;5042875;28;20434;-41
2023/10/06 10:57:14;;;;;;;162.10;155.33;;;;;;;15.37;100.00;101557.19;5042763;28;20457;-41
2023/10/06 11:00:13;;;;;;;166.27;159.60;;;;;;;15.28;100.00;101545.84;5050342;28;20462;-42
2023/10/06 11:02:43;;;;;;;167.73;161.23;;;;;;;15.30;100.00;101534.88;5042980;28;20584;-43
2023/10/06 11:05:11;;;;;;;162.03;155.87;;;;;;;15.33;100.00;101532.59;5042862;28;20479;-41
2023/10/06 11:07:41;;;;;;;160.93;154.77;;;;;;;15.36;100.00;101513.38;5045057;28;20459;-41